sensor_id;sensor_type;location;lat;lon;timestamp;temperature;humidity
53776;DHT22;44276;49.534;6.378;2023-07-08T00:01:19;16.90;99.90
53776;DHT22;44276;49.534;6.378;2023-07-08T00:03:50;17.00;99.90
53776;DHT22;44276;49.534;6.378;2023-07-08T00:06:20;17.10;99.90
53776;DHT22;44276;49.534;6.378;2023-07-08T00:08:50;17.00;99.90
53776;DHT22;44276;49.534;6.378;2023-07-08T00:11:19;17.00;99.90
53776;DHT22;44276;49.534;6.378;2023-07-08T00:13:48;17.10;99.90
53776;DHT22;44276;49.534;6.378;2023-07-08T00:16:18;17.20;99.90
53776;DHT22;44276;49.534;6.378;2023-07-08T00:18:47;17.10;99.90
53776;DHT22;44276;49.534;6.378;2023-07-08T00:21:17;17.20;99.90
53776;DHT22;44276;49.534;6.378;2023-07-08T00:23:47;17.20;99.90
53776;DHT22;44276;49.534;6.378;2023-07-08T00:26:19;17.30;99.90
53776;DHT22;44276;49.534;6.378;2023-07-08T00:28:52;17.40;99.90
53776;DHT22;44276;49.534;6.378;2023-07-08T00:31:22;17.40;99.90
53776;DHT22;44276;49.534;6.378;2023-07-08T00:33:53;17.30;99.90
53776;DHT22;44276;49.534;6.378;2023-07-08T00:36:26;17.10;99.90
53776;DHT22;44276;49.534;6.378;2023-07-08T00:38:55;17.10;99.90
53776;DHT22;44276;49.534;6.378;2023-07-08T00:41:27;16.90;99.90
53776;DHT22;44276;49.534;6.378;2023-07-08T00:44:00;16.70;99.90
53776;DHT22;44276;49.534;6.378;2023-07-08T00:46:37;16.80;99.90
53776;DHT22;44276;49.534;6.378;2023-07-08T00:49:25;16.60;99.90
53776;DHT22;44276;49.534;6.378;2023-07-08T00:52:15;16.50;99.90
53776;DHT22;44276;49.534;6.378;2023-07-08T00:54:45;16.40;99.90
53776;DHT22;44276;49.534;6.378;2023-07-08T00:57:16;16.40;99.90
53776;DHT22;44276;49.534;6.378;2023-07-08T00:59:51;16.40;99.90
53776;DHT22;44276;49.534;6.378;2023-07-08T01:02:25;16.40;99.90
53776;DHT22;44276;49.534;6.378;2023-07-08T01:04:58;16.40;99.90
53776;DHT22;44276;49.534;6.378;2023-07-08T01:07:32;16.60;99.90
53776;DHT22;44276;49.534;6.378;2023-07-08T01:10:04;16.50;99.90
53776;DHT22;44276;49.534;6.378;2023-07-08T01:12:41;16.50;99.90
53776;DHT22;44276;49.534;6.378;2023-07-08T01:15:14;16.30;99.90
53776;DHT22;44276;49.534;6.378;2023-07-08T01:17:43;16.20;99.90
53776;DHT22;44276;49.534;6.378;2023-07-08T01:20:13;16.30;99.90
53776;DHT22;44276;49.534;6.378;2023-07-08T01:22:44;16.30;99.90
53776;DHT22;44276;49.534;6.378;2023-07-08T01:25:13;16.30;99.90
53776;DHT22;44276;49.534;6.378;2023-07-08T01:27:45;16.30;99.90
53776;DHT22;44276;49.534;6.378;2023-07-08T01:30:16;16.30;99.90
53776;DHT22;44276;49.534;6.378;2023-07-08T01:32:48;16.20;99.90
53776;DHT22;44276;49.534;6.378;2023-07-08T01:35:17;16.10;99.90
53776;DHT22;44276;49.534;6.378;2023-07-08T01:37:51;16.10;99.90
53776;DHT22;44276;49.534;6.378;2023-07-08T01:40:25;16.20;99.90
53776;DHT22;44276;49.534;6.378;2023-07-08T01:42:56;16.30;99.90
53776;DHT22;44276;49.534;6.378;2023-07-08T01:45:27;16.20;99.90
53776;DHT22;44276;49.534;6.378;2023-07-08T01:48:01;16.20;99.90
53776;DHT22;44276;49.534;6.378;2023-07-08T01:50:36;16.30;99.90
53776;DHT22;44276;49.534;6.378;2023-07-08T01:53:13;16.30;99.90
53776;DHT22;44276;49.534;6.378;2023-07-08T01:55:45;16.40;99.90
53776;DHT22;44276;49.534;6.378;2023-07-08T01:58:13;16.40;99.90
53776;DHT22;44276;49.534;6.378;2023-07-08T02:00:41;16.30;99.90
53776;DHT22;44276;49.534;6.378;2023-07-08T02:03:10;16.20;99.90
53776;DHT22;44276;49.534;6.378;2023-07-08T02:05:38;16.00;99.90
53776;DHT22;44276;49.534;6.378;2023-07-08T02:08:08;16.00;99.90
53776;DHT22;44276;49.534;6.378;2023-07-08T02:10:37;16.10;99.90
53776;DHT22;44276;49.534;6.378;2023-07-08T02:13:06;16.30;99.90
53776;DHT22;44276;49.534;6.378;2023-07-08T02:15:35;16.40;99.90
53776;DHT22;44276;49.534;6.378;2023-07-08T02:18:03;16.50;99.90
53776;DHT22;44276;49.534;6.378;2023-07-08T02:20:31;16.50;99.90
53776;DHT22;44276;49.534;6.378;2023-07-08T02:23:00;16.50;99.90
53776;DHT22;44276;49.534;6.378;2023-07-08T02:25:29;16.60;99.90
53776;DHT22;44276;49.534;6.378;2023-07-08T02:27:58;16.60;99.90
53776;DHT22;44276;49.534;6.378;2023-07-08T02:30:27;16.70;99.90
53776;DHT22;44276;49.534;6.378;2023-07-08T02:32:55;16.70;99.90
53776;DHT22;44276;49.534;6.378;2023-07-08T02:35:25;16.90;99.90
53776;DHT22;44276;49.534;6.378;2023-07-08T02:37:56;17.00;99.80
53776;DHT22;44276;49.534;6.378;2023-07-08T02:40:25;17.10;97.90
53776;DHT22;44276;49.534;6.378;2023-07-08T02:42:55;17.10;98.30
53776;DHT22;44276;49.534;6.378;2023-07-08T02:45:23;17.10;97.20
53776;DHT22;44276;49.534;6.378;2023-07-08T02:47:51;17.10;96.30
53776;DHT22;44276;49.534;6.378;2023-07-08T02:50:19;17.10;96.60
53776;DHT22;44276;49.534;6.378;2023-07-08T02:52:47;17.10;97.60
53776;DHT22;44276;49.534;6.378;2023-07-08T02:55:15;16.90;99.90
53776;DHT22;44276;49.534;6.378;2023-07-08T02:57:44;16.80;99.90
53776;DHT22;44276;49.534;6.378;2023-07-08T03:00:14;16.80;99.90
53776;DHT22;44276;49.534;6.378;2023-07-08T03:02:44;16.70;99.90
53776;DHT22;44276;49.534;6.378;2023-07-08T03:05:13;16.70;99.90
53776;DHT22;44276;49.534;6.378;2023-07-08T03:07:41;16.60;99.90
53776;DHT22;44276;49.534;6.378;2023-07-08T03:10:09;16.50;99.90
53776;DHT22;44276;49.534;6.378;2023-07-08T03:12:38;16.50;99.90
53776;DHT22;44276;49.534;6.378;2023-07-08T03:15:07;16.40;99.90
53776;DHT22;44276;49.534;6.378;2023-07-08T03:17:37;16.20;99.90
53776;DHT22;44276;49.534;6.378;2023-07-08T03:20:06;15.90;99.90
53776;DHT22;44276;49.534;6.378;2023-07-08T03:22:35;15.80;99.90
53776;DHT22;44276;49.534;6.378;2023-07-08T03:25:04;15.70;99.90
53776;DHT22;44276;49.534;6.378;2023-07-08T03:27:32;15.60;99.90
53776;DHT22;44276;49.534;6.378;2023-07-08T03:30:01;15.50;99.90
53776;DHT22;44276;49.534;6.378;2023-07-08T03:32:30;15.40;99.90
53776;DHT22;44276;49.534;6.378;2023-07-08T03:35:00;15.20;99.90
53776;DHT22;44276;49.534;6.378;2023-07-08T03:37:28;15.10;99.90
53776;DHT22;44276;49.534;6.378;2023-07-08T03:39:57;15.00;99.90
53776;DHT22;44276;49.534;6.378;2023-07-08T03:42:25;14.80;99.90
53776;DHT22;44276;49.534;6.378;2023-07-08T03:44:53;14.70;99.90
53776;DHT22;44276;49.534;6.378;2023-07-08T03:47:22;14.60;99.90
53776;DHT22;44276;49.534;6.378;2023-07-08T03:49:50;14.60;99.90
53776;DHT22;44276;49.534;6.378;2023-07-08T03:52:19;14.40;99.90
53776;DHT22;44276;49.534;6.378;2023-07-08T03:54:48;14.40;99.90
53776;DHT22;44276;49.534;6.378;2023-07-08T03:57:16;14.40;99.90
53776;DHT22;44276;49.534;6.378;2023-07-08T03:59:44;14.40;99.90
53776;DHT22;44276;49.534;6.378;2023-07-08T04:02:12;14.50;99.90
53776;DHT22;44276;49.534;6.378;2023-07-08T04:04:40;14.60;99.90
53776;DHT22;44276;49.534;6.378;2023-07-08T04:07:08;14.70;99.90
53776;DHT22;44276;49.534;6.378;2023-07-08T04:09:40;14.70;99.90
53776;DHT22;44276;49.534;6.378;2023-07-08T04:12:10;14.70;99.90
53776;DHT22;44276;49.534;6.378;2023-07-08T04:14:38;14.70;99.90
53776;DHT22;44276;49.534;6.378;2023-07-08T04:17:09;14.70;99.90
53776;DHT22;44276;49.534;6.378;2023-07-08T04:19:39;14.80;99.90
53776;DHT22;44276;49.534;6.378;2023-07-08T04:22:10;14.80;99.90
53776;DHT22;44276;49.534;6.378;2023-07-08T04:24:40;14.80;99.90
53776;DHT22;44276;49.534;6.378;2023-07-08T04:27:12;14.90;99.90
53776;DHT22;44276;49.534;6.378;2023-07-08T04:29:43;15.00;99.90
53776;DHT22;44276;49.534;6.378;2023-07-08T04:32:12;15.10;99.90
53776;DHT22;44276;49.534;6.378;2023-07-08T04:34:40;15.10;99.90
53776;DHT22;44276;49.534;6.378;2023-07-08T04:37:11;15.20;99.90
53776;DHT22;44276;49.534;6.378;2023-07-08T04:39:41;15.20;99.90
53776;DHT22;44276;49.534;6.378;2023-07-08T04:42:09;15.30;99.90
53776;DHT22;44276;49.534;6.378;2023-07-08T04:44:39;15.30;99.90
53776;DHT22;44276;49.534;6.378;2023-07-08T04:47:08;15.40;99.90
53776;DHT22;44276;49.534;6.378;2023-07-08T04:49:38;15.40;99.90
53776;DHT22;44276;49.534;6.378;2023-07-08T04:52:08;15.50;99.90
53776;DHT22;44276;49.534;6.378;2023-07-08T04:54:37;15.60;99.90
53776;DHT22;44276;49.534;6.378;2023-07-08T04:57:07;15.70;99.90
53776;DHT22;44276;49.534;6.378;2023-07-08T04:59:35;15.90;99.90
53776;DHT22;44276;49.534;6.378;2023-07-08T05:02:04;16.10;99.90
53776;DHT22;44276;49.534;6.378;2023-07-08T05:04:33;16.20;99.90
53776;DHT22;44276;49.534;6.378;2023-07-08T05:07:01;16.40;99.90
53776;DHT22;44276;49.534;6.378;2023-07-08T05:09:29;16.70;99.90
53776;DHT22;44276;49.534;6.378;2023-07-08T05:11:58;16.90;99.90
53776;DHT22;44276;49.534;6.378;2023-07-08T05:14:28;17.10;99.90
53776;DHT22;44276;49.534;6.378;2023-07-08T05:16:57;17.30;99.90
53776;DHT22;44276;49.534;6.378;2023-07-08T05:19:25;17.70;99.90
53776;DHT22;44276;49.534;6.378;2023-07-08T05:21:53;18.20;99.90
53776;DHT22;44276;49.534;6.378;2023-07-08T05:24:22;19.50;90.00
53776;DHT22;44276;49.534;6.378;2023-07-08T05:26:50;20.90;62.10
53776;DHT22;44276;49.534;6.378;2023-07-08T05:29:18;22.00;48.70
53776;DHT22;44276;49.534;6.378;2023-07-08T05:31:47;23.20;41.30
53776;DHT22;44276;49.534;6.378;2023-07-08T05:34:16;24.10;34.10
53776;DHT22;44276;49.534;6.378;2023-07-08T05:36:44;24.50;32.10
53776;DHT22;44276;49.534;6.378;2023-07-08T05:39:12;24.80;31.50
53776;DHT22;44276;49.534;6.378;2023-07-08T05:41:40;25.20;29.20
53776;DHT22;44276;49.534;6.378;2023-07-08T05:44:08;25.90;27.50
53776;DHT22;44276;49.534;6.378;2023-07-08T05:46:37;26.70;25.70
53776;DHT22;44276;49.534;6.378;2023-07-08T05:49:06;27.10;24.40
53776;DHT22;44276;49.534;6.378;2023-07-08T05:51:35;28.10;23.50
53776;DHT22;44276;49.534;6.378;2023-07-08T05:54:04;28.70;21.20
53776;DHT22;44276;49.534;6.378;2023-07-08T05:56:32;29.00;20.90
53776;DHT22;44276;49.534;6.378;2023-07-08T05:59:00;29.30;20.00
53776;DHT22;44276;49.534;6.378;2023-07-08T06:01:28;29.30;20.40
53776;DHT22;44276;49.534;6.378;2023-07-08T06:03:57;29.50;19.50
53776;DHT22;44276;49.534;6.378;2023-07-08T06:06:27;30.20;17.70
53776;DHT22;44276;49.534;6.378;2023-07-08T06:08:56;31.10;16.80
53776;DHT22;44276;49.534;6.378;2023-07-08T06:11:24;31.70;15.80
53776;DHT22;44276;49.534;6.378;2023-07-08T06:13:52;31.60;15.60
53776;DHT22;44276;49.534;6.378;2023-07-08T06:16:20;30.70;17.00
53776;DHT22;44276;49.534;6.378;2023-07-08T06:19:06;30.60;17.30
53776;DHT22;44276;49.534;6.378;2023-07-08T06:21:36;31.50;16.10
53776;DHT22;44276;49.534;6.378;2023-07-08T06:24:05;32.00;15.50
53776;DHT22;44276;49.534;6.378;2023-07-08T06:26:33;33.00;14.70
53776;DHT22;44276;49.534;6.378;2023-07-08T06:29:02;34.10;13.50
53776;DHT22;44276;49.534;6.378;2023-07-08T06:31:30;34.80;12.30
53776;DHT22;44276;49.534;6.378;2023-07-08T06:33:59;34.20;12.20
53776;DHT22;44276;49.534;6.378;2023-07-08T06:36:28;34.70;11.70
53776;DHT22;44276;49.534;6.378;2023-07-08T06:38:57;35.40;10.90
53776;DHT22;44276;49.534;6.378;2023-07-08T06:41:25;36.00;10.30
53776;DHT22;44276;49.534;6.378;2023-07-08T06:43:53;36.20;9.40
53776;DHT22;44276;49.534;6.378;2023-07-08T06:46:22;37.00;9.00
53776;DHT22;44276;49.534;6.378;2023-07-08T06:48:51;37.70;8.30
53776;DHT22;44276;49.534;6.378;2023-07-08T06:51:20;37.90;7.40
53776;DHT22;44276;49.534;6.378;2023-07-08T06:53:48;37.90;8.10
53776;DHT22;44276;49.534;6.378;2023-07-08T06:56:18;38.70;6.50
53776;DHT22;44276;49.534;6.378;2023-07-08T06:58:47;37.60;6.90
53776;DHT22;44276;49.534;6.378;2023-07-08T07:01:15;36.60;8.40
53776;DHT22;44276;49.534;6.378;2023-07-08T07:03:43;35.50;9.30
53776;DHT22;44276;49.534;6.378;2023-07-08T07:06:12;35.60;9.40
53776;DHT22;44276;49.534;6.378;2023-07-08T07:08:40;36.40;8.50
53776;DHT22;44276;49.534;6.378;2023-07-08T07:11:08;35.80;8.30
53776;DHT22;44276;49.534;6.378;2023-07-08T07:13:37;35.20;9.50
53776;DHT22;44276;49.534;6.378;2023-07-08T07:16:05;34.30;10.00
53776;DHT22;44276;49.534;6.378;2023-07-08T07:18:34;34.60;10.20
53776;DHT22;44276;49.534;6.378;2023-07-08T07:21:02;35.30;9.50
53776;DHT22;44276;49.534;6.378;2023-07-08T07:23:33;36.60;8.90
53776;DHT22;44276;49.534;6.378;2023-07-08T07:26:01;36.90;7.20
53776;DHT22;44276;49.534;6.378;2023-07-08T07:28:30;37.80;7.20
53776;DHT22;44276;49.534;6.378;2023-07-08T07:30:59;37.80;6.60
53776;DHT22;44276;49.534;6.378;2023-07-08T07:33:28;37.70;6.60
53776;DHT22;44276;49.534;6.378;2023-07-08T07:35:58;37.60;7.10
53776;DHT22;44276;49.534;6.378;2023-07-08T07:38:27;37.70;7.10
53776;DHT22;44276;49.534;6.378;2023-07-08T07:40:56;37.70;7.20
53776;DHT22;44276;49.534;6.378;2023-07-08T07:43:26;37.30;7.60
53776;DHT22;44276;49.534;6.378;2023-07-08T07:45:55;37.20;8.00
53776;DHT22;44276;49.534;6.378;2023-07-08T07:48:25;35.80;8.30
53776;DHT22;44276;49.534;6.378;2023-07-08T07:50:53;34.30;10.30
53776;DHT22;44276;49.534;6.378;2023-07-08T07:53:21;33.40;11.50
53776;DHT22;44276;49.534;6.378;2023-07-08T07:55:56;33.30;11.80
53776;DHT22;44276;49.534;6.378;2023-07-08T07:58:25;33.50;11.60
53776;DHT22;44276;49.534;6.378;2023-07-08T08:00:54;34.00;11.10
53776;DHT22;44276;49.534;6.378;2023-07-08T08:03:22;34.40;11.00
53776;DHT22;44276;49.534;6.378;2023-07-08T08:05:52;33.30;12.70
53776;DHT22;44276;49.534;6.378;2023-07-08T08:08:21;32.70;13.40
53776;DHT22;44276;49.534;6.378;2023-07-08T08:10:49;32.70;13.70
53776;DHT22;44276;49.534;6.378;2023-07-08T08:13:17;33.50;12.70
53776;DHT22;44276;49.534;6.378;2023-07-08T08:15:45;33.70;11.90
53776;DHT22;44276;49.534;6.378;2023-07-08T08:18:13;33.50;13.00
53776;DHT22;44276;49.534;6.378;2023-07-08T08:20:43;33.30;13.50
53776;DHT22;44276;49.534;6.378;2023-07-08T08:23:11;34.00;12.70
53776;DHT22;44276;49.534;6.378;2023-07-08T08:25:39;34.80;12.40
53776;DHT22;44276;49.534;6.378;2023-07-08T08:28:07;34.80;11.30
53776;DHT22;44276;49.534;6.378;2023-07-08T08:30:35;34.10;12.20
53776;DHT22;44276;49.534;6.378;2023-07-08T08:33:04;33.80;13.40
53776;DHT22;44276;49.534;6.378;2023-07-08T08:35:32;33.50;13.10
53776;DHT22;44276;49.534;6.378;2023-07-08T08:38:03;33.60;14.10
53776;DHT22;44276;49.534;6.378;2023-07-08T08:40:32;33.80;12.90
53776;DHT22;44276;49.534;6.378;2023-07-08T08:43:02;33.90;13.00
53776;DHT22;44276;49.534;6.378;2023-07-08T08:45:39;33.30;14.00
53776;DHT22;44276;49.534;6.378;2023-07-08T08:48:15;33.30;14.00
53776;DHT22;44276;49.534;6.378;2023-07-08T08:50:51;33.60;13.80
53776;DHT22;44276;49.534;6.378;2023-07-08T08:53:26;34.50;12.50
53776;DHT22;44276;49.534;6.378;2023-07-08T08:55:58;34.50;12.90
53776;DHT22;44276;49.534;6.378;2023-07-08T08:58:38;34.30;12.70
53776;DHT22;44276;49.534;6.378;2023-07-08T09:01:13;34.50;12.50
53776;DHT22;44276;49.534;6.378;2023-07-08T09:03:47;35.00;12.20
53776;DHT22;44276;49.534;6.378;2023-07-08T09:06:21;35.10;12.60
53776;DHT22;44276;49.534;6.378;2023-07-08T09:08:56;34.80;12.20
53776;DHT22;44276;49.534;6.378;2023-07-08T09:11:39;34.40;12.80
53776;DHT22;44276;49.534;6.378;2023-07-08T09:14:16;34.70;12.30
53776;DHT22;44276;49.534;6.378;2023-07-08T09:16:57;35.20;12.80
53776;DHT22;44276;49.534;6.378;2023-07-08T09:19:41;35.20;12.20
53776;DHT22;44276;49.534;6.378;2023-07-08T09:22:16;34.90;12.40
53776;DHT22;44276;49.534;6.378;2023-07-08T09:24:55;34.70;12.70
53776;DHT22;44276;49.534;6.378;2023-07-08T09:27:27;34.70;12.50
53776;DHT22;44276;49.534;6.378;2023-07-08T09:29:56;35.10;12.60
53776;DHT22;44276;49.534;6.378;2023-07-08T09:32:27;35.50;12.00
53776;DHT22;44276;49.534;6.378;2023-07-08T09:35:03;36.00;11.90
53776;DHT22;44276;49.534;6.378;2023-07-08T09:37:35;35.80;11.50
53776;DHT22;44276;49.534;6.378;2023-07-08T09:40:28;36.00;11.50
53776;DHT22;44276;49.534;6.378;2023-07-08T09:43:01;36.00;11.60
53776;DHT22;44276;49.534;6.378;2023-07-08T09:45:40;36.00;11.70
53776;DHT22;44276;49.534;6.378;2023-07-08T09:48:21;36.20;11.50
53776;DHT22;44276;49.534;6.378;2023-07-08T09:50:53;36.30;11.10
53776;DHT22;44276;49.534;6.378;2023-07-08T09:53:24;36.30;11.60
53776;DHT22;44276;49.534;6.378;2023-07-08T09:55:57;36.70;10.50
53776;DHT22;44276;49.534;6.378;2023-07-08T09:58:30;36.80;10.70
53776;DHT22;44276;49.534;6.378;2023-07-08T10:01:08;36.30;11.20
53776;DHT22;44276;49.534;6.378;2023-07-08T10:03:39;36.80;10.70
53776;DHT22;44276;49.534;6.378;2023-07-08T10:06:24;37.50;10.00
53776;DHT22;44276;49.534;6.378;2023-07-08T10:08:54;37.90;9.80
53776;DHT22;44276;49.534;6.378;2023-07-08T10:11:29;37.60;10.10
53776;DHT22;44276;49.534;6.378;2023-07-08T10:14:03;37.50;9.70
53776;DHT22;44276;49.534;6.378;2023-07-08T10:16:41;38.90;8.60
53776;DHT22;44276;49.534;6.378;2023-07-08T10:19:13;39.00;8.20
53776;DHT22;44276;49.534;6.378;2023-07-08T10:21:51;38.80;8.50
53776;DHT22;44276;49.534;6.378;2023-07-08T10:24:37;38.50;9.30
53776;DHT22;44276;49.534;6.378;2023-07-08T10:27:29;39.40;9.00
53776;DHT22;44276;49.534;6.378;2023-07-08T10:30:16;38.60;8.90
53776;DHT22;44276;49.534;6.378;2023-07-08T10:33:03;39.00;8.80
53776;DHT22;44276;49.534;6.378;2023-07-08T10:35:48;39.80;7.80
53776;DHT22;44276;49.534;6.378;2023-07-08T10:38:40;40.70;7.50
53776;DHT22;44276;49.534;6.378;2023-07-08T10:41:24;40.40;6.90
53776;DHT22;44276;49.534;6.378;2023-07-08T10:44:06;39.90;7.60
53776;DHT22;44276;49.534;6.378;2023-07-08T10:46:46;40.20;7.50
53776;DHT22;44276;49.534;6.378;2023-07-08T10:49:43;41.10;6.20
53776;DHT22;44276;49.534;6.378;2023-07-08T10:52:33;41.40;6.20
53776;DHT22;44276;49.534;6.378;2023-07-08T10:55:20;41.50;6.20
53776;DHT22;44276;49.534;6.378;2023-07-08T10:58:36;40.00;7.80
53776;DHT22;44276;49.534;6.378;2023-07-08T11:01:26;38.10;9.70
53776;DHT22;44276;49.534;6.378;2023-07-08T11:04:21;38.10;10.10
53776;DHT22;44276;49.534;6.378;2023-07-08T11:07:08;38.70;8.90
53776;DHT22;44276;49.534;6.378;2023-07-08T11:09:42;38.70;8.80
53776;DHT22;44276;49.534;6.378;2023-07-08T11:12:23;39.10;9.10
53776;DHT22;44276;49.534;6.378;2023-07-08T11:15:02;38.70;9.30
53776;DHT22;44276;49.534;6.378;2023-07-08T11:17:38;38.00;10.10
53776;DHT22;44276;49.534;6.378;2023-07-08T11:20:17;37.80;10.40
53776;DHT22;44276;49.534;6.378;2023-07-08T11:22:52;38.20;10.00
53776;DHT22;44276;49.534;6.378;2023-07-08T11:25:26;38.50;9.30
53776;DHT22;44276;49.534;6.378;2023-07-08T11:27:58;38.70;9.20
53776;DHT22;44276;49.534;6.378;2023-07-08T11:30:32;38.50;9.30
53776;DHT22;44276;49.534;6.378;2023-07-08T11:33:12;39.50;9.10
53776;DHT22;44276;49.534;6.378;2023-07-08T11:35:43;41.30;7.40
53776;DHT22;44276;49.534;6.378;2023-07-08T11:38:16;41.10;7.10
53776;DHT22;44276;49.534;6.378;2023-07-08T11:40:54;40.10;7.70
53776;DHT22;44276;49.534;6.378;2023-07-08T11:43:27;39.40;8.60
53776;DHT22;44276;49.534;6.378;2023-07-08T11:46:05;39.50;8.60
53776;DHT22;44276;49.534;6.378;2023-07-08T11:48:40;40.20;7.90
53776;DHT22;44276;49.534;6.378;2023-07-08T11:51:17;39.90;7.90
53776;DHT22;44276;49.534;6.378;2023-07-08T11:53:48;39.50;7.90
53776;DHT22;44276;49.534;6.378;2023-07-08T11:56:24;39.10;9.20
53776;DHT22;44276;49.534;6.378;2023-07-08T11:59:12;39.40;8.80
53776;DHT22;44276;49.534;6.378;2023-07-08T12:01:52;39.50;8.10
53776;DHT22;44276;49.534;6.378;2023-07-08T12:04:28;39.80;8.50
53776;DHT22;44276;49.534;6.378;2023-07-08T12:07:16;38.90;9.20
53776;DHT22;44276;49.534;6.378;2023-07-08T12:09:50;37.90;10.30
53776;DHT22;44276;49.534;6.378;2023-07-08T12:12:30;36.80;11.00
53776;DHT22;44276;49.534;6.378;2023-07-08T12:15:08;36.40;11.90
53776;DHT22;44276;49.534;6.378;2023-07-08T12:17:41;36.30;11.80
53776;DHT22;44276;49.534;6.378;2023-07-08T12:20:18;36.80;11.60
53776;DHT22;44276;49.534;6.378;2023-07-08T12:22:50;37.70;10.60
53776;DHT22;44276;49.534;6.378;2023-07-08T12:25:28;38.00;9.60
53776;DHT22;44276;49.534;6.378;2023-07-08T12:27:58;37.90;10.50
53776;DHT22;44276;49.534;6.378;2023-07-08T12:30:29;38.40;9.70
53776;DHT22;44276;49.534;6.378;2023-07-08T12:32:59;38.40;8.90
53776;DHT22;44276;49.534;6.378;2023-07-08T12:35:31;38.50;9.20
53776;DHT22;44276;49.534;6.378;2023-07-08T12:38:03;37.90;9.30
53776;DHT22;44276;49.534;6.378;2023-07-08T12:40:40;37.70;9.90
53776;DHT22;44276;49.534;6.378;2023-07-08T12:43:10;37.90;10.40
53776;DHT22;44276;49.534;6.378;2023-07-08T12:45:38;38.30;9.10
53776;DHT22;44276;49.534;6.378;2023-07-08T12:48:08;39.00;8.20
53776;DHT22;44276;49.534;6.378;2023-07-08T12:50:39;39.80;7.90
53776;DHT22;44276;49.534;6.378;2023-07-08T12:53:07;40.60;7.60
53776;DHT22;44276;49.534;6.378;2023-07-08T12:55:37;39.80;8.10
53776;DHT22;44276;49.534;6.378;2023-07-08T12:58:09;38.80;9.20
53776;DHT22;44276;49.534;6.378;2023-07-08T13:00:42;38.00;10.20
53776;DHT22;44276;49.534;6.378;2023-07-08T13:03:14;37.30;11.00
53776;DHT22;44276;49.534;6.378;2023-07-08T13:05:48;36.20;11.80
53776;DHT22;44276;49.534;6.378;2023-07-08T13:08:21;35.70;12.80
53776;DHT22;44276;49.534;6.378;2023-07-08T13:10:54;36.00;12.60
53776;DHT22;44276;49.534;6.378;2023-07-08T13:13:29;36.10;12.60
53776;DHT22;44276;49.534;6.378;2023-07-08T13:16:02;36.80;12.10
53776;DHT22;44276;49.534;6.378;2023-07-08T13:18:34;37.10;11.60
53776;DHT22;44276;49.534;6.378;2023-07-08T13:21:06;37.00;12.50
53776;DHT22;44276;49.534;6.378;2023-07-08T13:23:39;37.00;12.20
53776;DHT22;44276;49.534;6.378;2023-07-08T13:26:15;36.50;12.50
53776;DHT22;44276;49.534;6.378;2023-07-08T13:28:45;35.50;13.70
53776;DHT22;44276;49.534;6.378;2023-07-08T13:31:18;35.30;14.90
53776;DHT22;44276;49.534;6.378;2023-07-08T13:33:52;35.30;14.20
53776;DHT22;44276;49.534;6.378;2023-07-08T13:36:29;35.60;13.70
53776;DHT22;44276;49.534;6.378;2023-07-08T13:39:01;35.80;14.20
53776;DHT22;44276;49.534;6.378;2023-07-08T13:41:32;36.20;13.40
53776;DHT22;44276;49.534;6.378;2023-07-08T13:44:04;36.30;13.40
53776;DHT22;44276;49.534;6.378;2023-07-08T13:46:36;36.30;14.20
53776;DHT22;44276;49.534;6.378;2023-07-08T13:49:12;35.80;13.60
53776;DHT22;44276;49.534;6.378;2023-07-08T13:51:43;35.30;14.20
53776;DHT22;44276;49.534;6.378;2023-07-08T13:54:22;34.70;14.80
53776;DHT22;44276;49.534;6.378;2023-07-08T13:56:53;34.40;15.20
53776;DHT22;44276;49.534;6.378;2023-07-08T13:59:23;34.50;15.80
53776;DHT22;44276;49.534;6.378;2023-07-08T14:01:55;35.20;15.50
53776;DHT22;44276;49.534;6.378;2023-07-08T14:04:29;35.00;14.90
53776;DHT22;44276;49.534;6.378;2023-07-08T14:07:01;34.70;14.80
53776;DHT22;44276;49.534;6.378;2023-07-08T14:09:29;34.60;15.10
53776;DHT22;44276;49.534;6.378;2023-07-08T14:11:57;35.20;15.20
53776;DHT22;44276;49.534;6.378;2023-07-08T14:14:25;35.90;14.30
53776;DHT22;44276;49.534;6.378;2023-07-08T14:16:54;36.70;13.10
53776;DHT22;44276;49.534;6.378;2023-07-08T14:19:24;37.30;12.30
53776;DHT22;44276;49.534;6.378;2023-07-08T14:21:56;37.60;11.30
53776;DHT22;44276;49.534;6.378;2023-07-08T14:24:26;37.40;12.00
53776;DHT22;44276;49.534;6.378;2023-07-08T14:26:55;37.30;12.00
53776;DHT22;44276;49.534;6.378;2023-07-08T14:29:23;37.20;12.00
53776;DHT22;44276;49.534;6.378;2023-07-08T14:31:52;37.30;12.20
53776;DHT22;44276;49.534;6.378;2023-07-08T14:34:23;37.00;11.60
53776;DHT22;44276;49.534;6.378;2023-07-08T14:36:53;37.40;11.40
53776;DHT22;44276;49.534;6.378;2023-07-08T14:39:21;37.70;11.00
53776;DHT22;44276;49.534;6.378;2023-07-08T14:41:51;37.30;11.30
53776;DHT22;44276;49.534;6.378;2023-07-08T14:44:24;37.30;11.30
53776;DHT22;44276;49.534;6.378;2023-07-08T14:46:54;37.40;11.20
53776;DHT22;44276;49.534;6.378;2023-07-08T14:49:23;37.60;11.10
53776;DHT22;44276;49.534;6.378;2023-07-08T14:51:52;37.60;11.10
53776;DHT22;44276;49.534;6.378;2023-07-08T14:54:21;37.00;11.10
53776;DHT22;44276;49.534;6.378;2023-07-08T14:56:54;36.80;11.50
53776;DHT22;44276;49.534;6.378;2023-07-08T14:59:25;36.90;11.00
53776;DHT22;44276;49.534;6.378;2023-07-08T15:01:57;37.00;10.80
53776;DHT22;44276;49.534;6.378;2023-07-08T15:04:27;37.00;10.00
53776;DHT22;44276;49.534;6.378;2023-07-08T15:06:57;36.90;10.80
53776;DHT22;44276;49.534;6.378;2023-07-08T15:09:27;37.20;10.20
53776;DHT22;44276;49.534;6.378;2023-07-08T15:11:57;37.50;9.00
53776;DHT22;44276;49.534;6.378;2023-07-08T15:14:25;37.30;9.40
53776;DHT22;44276;49.534;6.378;2023-07-08T15:16:54;37.10;9.30
53776;DHT22;44276;49.534;6.378;2023-07-08T15:19:24;37.10;9.50
53776;DHT22;44276;49.534;6.378;2023-07-08T15:21:55;37.30;9.80
53776;DHT22;44276;49.534;6.378;2023-07-08T15:24:23;37.50;10.30
53776;DHT22;44276;49.534;6.378;2023-07-08T15:26:51;37.80;8.90
53776;DHT22;44276;49.534;6.378;2023-07-08T15:29:22;37.70;9.60
53776;DHT22;44276;49.534;6.378;2023-07-08T15:31:51;37.50;9.40
53776;DHT22;44276;49.534;6.378;2023-07-08T15:34:21;37.30;9.40
53776;DHT22;44276;49.534;6.378;2023-07-08T15:36:49;36.60;10.00
53776;DHT22;44276;49.534;6.378;2023-07-08T15:39:18;35.90;10.50
53776;DHT22;44276;49.534;6.378;2023-07-08T15:41:47;35.80;11.50
53776;DHT22;44276;49.534;6.378;2023-07-08T15:44:15;35.80;11.40
53776;DHT22;44276;49.534;6.378;2023-07-08T15:46:46;35.80;11.60
53776;DHT22;44276;49.534;6.378;2023-07-08T15:49:17;35.70;11.00
53776;DHT22;44276;49.534;6.378;2023-07-08T15:51:49;36.00;10.80
53776;DHT22;44276;49.534;6.378;2023-07-08T15:54:18;36.20;9.50
53776;DHT22;44276;49.534;6.378;2023-07-08T15:56:47;36.10;10.00
53776;DHT22;44276;49.534;6.378;2023-07-08T15:59:20;36.40;10.70
53776;DHT22;44276;49.534;6.378;2023-07-08T16:01:57;36.30;10.80
53776;DHT22;44276;49.534;6.378;2023-07-08T16:04:32;36.20;11.50